Preview of NWS' New Version of Forecast
This preview is not operational and should not be used for support decisions.

Terminal Aerodrome Forecast (TAF)

Issued by National Weather Service (NWS)

                            
000
FTUS42 KKEY 132004 AAA
TAFMTH
TAF AMD
KMTH 132004Z 1320/1418 06006KT P6SM SCT025
     FM140700 08006KT P6SM VCSH SCT020
     FM141400 10008KT P6SM SCT020=